Map

Track Data

SID SEASON NUMBER BASIN SUBBASIN NAME ISO_TIME NATURE LAT LON WMO_WIND WMO_PRES WMO_AGENCY TRACK_TYPE DIST2LAND LANDFALL IFLAG USA_AGENCY USA_ATCF_ID USA_LAT USA_LON USA_RECORD USA_STATUS USA_WIND USA_PRES USA_SSHS USA_R34_NE USA_R34_SE USA_R34_SW USA_R34_NW USA_R50_NE USA_R50_SE USA_R50_SW USA_R50_NW USA_R64_NE USA_R64_SE USA_R64_SW USA_R64_NW USA_POCI USA_ROCI USA_RMW USA_EYE TOKYO_LAT TOKYO_LON TOKYO_GRADE TOKYO_WIND TOKYO_PRES TOKYO_R50_DIR TOKYO_R50_LONG TOKYO_R50_SHORT TOKYO_R30_DIR TOKYO_R30_LONG TOKYO_R30_SHORT TOKYO_LAND CMA_LAT CMA_LON CMA_CAT CMA_WIND CMA_PRES HKO_LAT HKO_LON HKO_CAT HKO_WIND HKO_PRES NEWDELHI_LAT NEWDELHI_LON NEWDELHI_GRADE NEWDELHI_WIND NEWDELHI_PRES NEWDELHI_CI NEWDELHI_DP NEWDELHI_POCI REUNION_LAT REUNION_LON REUNION_TYPE REUNION_WIND REUNION_PRES REUNION_TNUM REUNION_CI REUNION_RMW REUNION_R34_NE REUNION_R34_SE REUNION_R34_SW REUNION_R34_NW REUNION_R50_NE REUNION_R50_SE REUNION_R50_SW REUNION_R50_NW REUNION_R64_NE REUNION_R64_SE REUNION_R64_SW REUNION_R64_NW BOM_LAT BOM_LON BOM_TYPE BOM_WIND BOM_PRES BOM_TNUM BOM_CI BOM_RMW BOM_R34_NE BOM_R34_SE BOM_R34_SW BOM_R34_NW BOM_R50_NE BOM_R50_SE BOM_R50_SW BOM_R50_NW BOM_R64_NE BOM_R64_SE BOM_R64_SW BOM_R64_NW BOM_ROCI BOM_POCI BOM_EYE BOM_POS_METHOD BOM_PRES_METHOD NADI_LAT NADI_LON NADI_CAT NADI_WIND NADI_PRES WELLINGTON_LAT WELLINGTON_LON WELLINGTON_WIND WELLINGTON_PRES DS824_LAT DS824_LON DS824_STAGE DS824_WIND DS824_PRES TD9636_LAT TD9636_LON TD9636_STAGE TD9636_WIND TD9636_PRES TD9635_LAT TD9635_LON TD9635_WIND TD9635_PRES TD9635_ROCI NEUMANN_LAT NEUMANN_LON NEUMANN_CLASS NEUMANN_WIND NEUMANN_PRES MLC_LAT MLC_LON MLC_CLASS MLC_WIND MLC_PRES USA_GUST BOM_GUST BOM_GUST_PER REUNION_GUST REUNION_GUST_PER USA_SEAHGT USA_SEARAD_NE USA_SEARAD_SE USA_SEARAD_SW USA_SEARAD_NW STORM_SPEED STORM_DIR
1897253N24280 1897 26 NA NA NOT_NAMED 1897-09-10 06:00:00 TS 23.7000 -80.0000 50 hurdat_atl main 89 88 O_____________ hurdat_atl AL021897 23.7000 -80.0000 TS 50 0 10 287
1897253N24280 1897 26 NA NA NOT_NAMED 1897-09-10 09:00:00 TS 23.8404 -80.5123 main 89 55 P_____________ AL021897 23.8404 -80.5123 TS 52 0 15 268
1897253N24280 1897 26 NA NA NOT_NAMED 1897-09-10 12:00:00 TS 23.6429 -81.6429 55 hurdat_atl main 55 55 O____________O hurdat_atl AL021897 24.0000 -81.0000 TS 55 0 21.5000 -85.5000 TS 35 16 267
1897253N24280 1897 26 NA NA NOT_NAMED 1897-09-10 15:00:00 TS 23.7438 -82.3000 main 67 67 P____________P AL021897 24.1922 -81.4501 TS 57 0 21.9501 -85.6998 TS 37 13 280
1897253N24280 1897 26 NA GM NOT_NAMED 1897-09-10 18:00:00 TS 23.8545 -82.9909 60 hurdat_atl main 102 102 O____________O hurdat_atl AL021897 24.4000 -81.9000 L TS 60 0 22.4000 -85.9000 TS 40 13 282
1897253N24280 1897 26 NA GM NOT_NAMED 1897-09-10 21:00:00 TS 24.0067 -83.6435 main 124 124 P____________P AL021897 24.5851 -82.4152 TS 62 0 22.8500 -86.1001 TS 42 11 295
1897253N24280 1897 26 NA GM NOT_NAMED 1897-09-11 00:00:00 TS 24.3000 -84.0333 65 hurdat_atl main 167 167 O____________O hurdat_atl AL021897 24.8000 -82.9000 HU 65 1 23.3000 -86.3000 TS 45 9 315
1897253N24280 1897 26 NA GM NOT_NAMED 1897-09-11 03:00:00 TS 24.6422 -84.3361 main 210 210 P____________P AL021897 25.0846 -83.2503 HU 70 1 23.7575 -86.5075 TS 47 9 322
1897253N24280 1897 26 NA GM NOT_NAMED 1897-09-11 06:00:00 TS 25.0000 -84.6333 75 hurdat_atl main 262 262 O____________O hurdat_atl AL021897 25.4000 -83.6000 HU 75 1 24.2000 -86.7000 TS 50 9 319
1897253N24280 1897 26 NA GM NOT_NAMED 1897-09-11 09:00:00 TS 25.3358 -84.9969 main 307 307 P____________P AL021897 25.7000 -84.0776 HU 75 1 24.6074 -86.8354 TS 52 10 314
1897253N24280 1897 26 NA GM NOT_NAMED 1897-09-11 12:00:00 TS 25.6667 -85.4000 75 hurdat_atl main 330 330 O____________O hurdat_atl AL021897 26.0000 -84.6000 HU 75 1 25.0000 -87.0000 TS 55 10 312
1897253N24280 1897 26 NA GM NOT_NAMED 1897-09-11 15:00:00 TS 25.9973 -85.8186 main 349 349 P____________P AL021897 26.2997 -85.0854 HU 75 1 25.3926 -87.2850 TS 57 10 311
1897253N24280 1897 26 NA GM NOT_NAMED 1897-09-11 18:00:00 TS 26.3333 -86.2667 75 hurdat_atl main 380 348 O____________O hurdat_atl AL021897 26.6000 -85.6000 HU 75 1 25.8000 -87.6000 TS 60 11 310
1897253N24280 1897 26 NA GM NOT_NAMED 1897-09-11 21:00:00 TS 26.6833 -86.7452 main 348 290 P____________P AL021897 26.9000 -86.1926 HU 75 1 26.2499 -87.8503 TS 62 11 309
1897253N24280 1897 26 NA GM NOT_NAMED 1897-09-12 00:00:00 TS 27.0333 -87.2333 75 hurdat_atl main 290 225 O____________O hurdat_atl AL021897 27.2000 -86.8000 HU 75 1 26.7000 -88.1000 HU 65 11 309
1897253N24280 1897 26 NA GM NOT_NAMED 1897-09-12 03:00:00 TS 27.3738 -87.6953 main 225 174 P____________P AL021897 27.5070 -87.3429 HU 75 1 27.1075 -88.4001 HU 67 11 309
1897253N24280 1897 26 NA GM NOT_NAMED 1897-09-12 06:00:00 TS 27.7000 -88.1667 75 hurdat_atl main 169 121 O____________O hurdat_atl AL021897 27.8000 -87.9000 HU 75 1 27.5000 -88.7000 HU 70 11 307
1897253N24280 1897 26 NA GM NOT_NAMED 1897-09-12 09:00:00 TS 28.0121 -88.6488 main 121 78 P____________P AL021897 28.0574 -88.5353 HU 75 1 27.9216 -88.8758 HU 72 11 303
1897253N24280 1897 26 NA GM NOT_NAMED 1897-09-12 12:00:00 TS 28.3000 -89.2000 75 hurdat_atl main 78 69 O____________O hurdat_atl AL021897 28.3000 -89.2000 HU 75 1 28.3000 -89.2000 HU 75 12 297
1897253N24280 1897 26 NA GM NOT_NAMED 1897-09-12 15:00:00 TS 28.5597 -89.8553 main 59 33 P____________P AL021897 28.5492 -89.8205 HU 75 1 28.5808 -89.9249 HU 75 13 292
1897253N24280 1897 26 NA GM NOT_NAMED 1897-09-12 18:00:00 TS 28.8000 -90.6000 75 hurdat_atl main 33 22 O____________O hurdat_atl AL021897 28.8000 -90.5000 HU 75 1 28.8000 -90.8000 HU 75 14 289
1897253N24280 1897 26 NA GM NOT_NAMED 1897-09-12 21:00:00 TS 29.0290 -91.3856 main 36 24 P____________P AL021897 29.0513 -91.3029 HU 75 1 28.9843 -91.5511 HU 75 15 288
1897253N24280 1897 26 NA GM NOT_NAMED 1897-09-13 00:00:00 TS 29.2667 -92.2333 75 hurdat_atl main 24 22 O____________O hurdat_atl AL021897 29.3000 -92.2000 HU 75 1 29.2000 -92.3000 HU 75 16 288
1897253N24280 1897 26 NA GM NOT_NAMED 1897-09-13 03:00:00 TS 29.5293 -93.1441 main 29 9 P____________P AL021897 29.5266 -93.1663 HU 75 1 29.5348 -93.0997 HU 70 17 289
1897253N24280 1897 26 NA GM NOT_NAMED 1897-09-13 05:00:00 TS 29.7270 -93.7455 75 hurdat_atl main 9 0 O____________P hurdat_atl AL021897 29.7000 -93.8000 L HU 75 1 29.7810 -93.6363 HU 66 17 291
1897253N24280 1897 26 NA NA NOT_NAMED 1897-09-13 06:00:00 TS 29.8333 -94.0333 75 hurdat_atl main 0 0 O____________O hurdat_atl AL021897 29.8000 -94.1000 HU 75 1 29.9000 -93.9000 HU 65 15 291
1897253N24280 1897 26 NA NA NOT_NAMED 1897-09-13 09:00:00 TS 30.0948 -94.8302 main 0 0 P____________P AL021897 30.0388 -94.9162 HU 62 0 30.2069 -94.6582 HU 60 15 291
1897253N24280 1897 26 NA NA NOT_NAMED 1897-09-13 12:00:00 TS 30.3667 -95.6000 50 hurdat_atl main 0 0 O____________O hurdat_atl AL021897 30.3000 -95.7000 TS 50 0 30.5000 -95.4000 TS 55 15 295
1897253N24280 1897 26 NA NA NOT_NAMED 1897-09-13 15:00:00 TS 30.7362 -96.4270 main 0 0 P____________P AL021897 30.7051 -96.5673 TS 45 0 30.7984 -96.1464 TS 50 17 299
1897253N24280 1897 26 NA NA NOT_NAMED 1897-09-13 18:00:00 TS 31.1667 -97.3000 40 hurdat_atl main 0 O____________O hurdat_atl AL021897 31.2000 -97.5000 TS 40 0 31.1000 -96.9000 TS 45 17 300

About IBTrACS Database

This database is a web-friendly format of International Best Track Archive for Climate Stewardship (IBTrACS), a global best track data archive curated by NOAA dating back to 1842.

Updated: 2021-11-26